createdAt,value
2023-02-12T00:00:30.983Z,102387.50
2023-02-12T00:03:35.070Z,102383.94
2023-02-12T00:06:39.337Z,102380.34
2023-02-12T00:09:42.404Z,102383.06
2023-02-12T00:12:45.305Z,102378.56
2023-02-12T00:15:48.271Z,102378.56
2023-02-12T00:18:54.862Z,102364.16
2023-02-12T00:21:57.629Z,102383.06
2023-02-12T00:25:00.330Z,102376.78
2023-02-12T00:28:03.806Z,102376.78
2023-02-12T00:31:08.585Z,102384.00
2023-02-12T00:34:12.709Z,102383.94
2023-02-12T00:37:16.056Z,102390.22
2023-02-12T00:40:19.065Z,102389.34
2023-02-12T00:43:21.904Z,102391.13
2023-02-12T00:46:24.953Z,102392.91
2023-02-12T00:49:29.362Z,102383.94
2023-02-12T00:52:32.133Z,102382.16
2023-02-12T00:55:35.223Z,102394.69
2023-02-12T00:58:37.936Z,102392.91
2023-02-12T01:01:41.253Z,102380.31
2023-02-12T01:04:46.095Z,102371.31
2023-02-12T01:07:50.733Z,102382.16
2023-02-12T01:10:59.221Z,102376.78
2023-02-12T01:14:02.295Z,102377.69
2023-02-12T01:17:05.028Z,102372.31
2023-02-12T01:20:12.454Z,102357.91
2023-02-12T01:23:15.165Z,102364.22
2023-02-12T01:26:19.826Z,102344.44
2023-02-12T01:29:22.558Z,102365.97
2023-02-12T01:32:25.366Z,102369.56
2023-02-12T01:35:29.427Z,102374.06
2023-02-12T01:38:32.406Z,102361.41
2023-02-12T01:41:37.582Z,102371.28
2023-02-12T01:44:44.963Z,102372.19
2023-02-12T01:47:47.830Z,102368.56
2023-02-12T01:50:54.184Z,102371.25
2023-02-12T01:54:00.215Z,102360.53
2023-02-12T01:57:06.025Z,102362.34
2023-02-12T02:00:12.421Z,102359.66
2023-02-12T02:03:15.472Z,102356.06
2023-02-12T02:06:23.678Z,102359.59
2023-02-12T02:09:27.132Z,102360.53
2023-02-12T02:12:49.507Z,102364.13
2023-02-12T02:15:58.447Z,102361.47
2023-02-12T02:19:09.106Z,102368.59
2023-02-12T02:22:22.762Z,102356.94
2023-02-12T02:25:58.107Z,102360.50
2023-02-12T02:29:15.450Z,102358.72
2023-02-12T02:32:25.710Z,102362.31
2023-02-12T02:35:33.454Z,102364.97
2023-02-12T02:38:43.357Z,102364.09
2023-02-12T02:41:51.095Z,102375.72
2023-02-12T02:44:55.854Z,102355.06
2023-02-12T02:48:05.805Z,102366.78
2023-02-12T02:51:13.071Z,102368.59
2023-02-12T02:54:21.429Z,102361.41
2023-02-12T02:57:29.283Z,102373.09
2023-02-12T03:00:38.773Z,102375.78
2023-02-12T03:03:50.248Z,102372.22
2023-02-12T03:06:57.445Z,102366.81
2023-02-12T03:10:03.364Z,102371.28
2023-02-12T03:13:10.282Z,102382.97
2023-02-12T03:16:17.982Z,102388.38
2023-02-12T03:19:26.026Z,102379.41
2023-02-12T03:22:32.607Z,102378.50
2023-02-12T03:25:39.314Z,102388.38
2023-02-12T03:28:42.244Z,102385.69
2023-02-12T03:31:56.797Z,102384.81
2023-02-12T03:35:13.531Z,102384.81
2023-02-12T03:38:22.970Z,102385.69
2023-02-12T03:41:32.140Z,102387.50
2023-02-12T03:44:48.869Z,102385.69
2023-02-12T03:48:02.333Z,102384.81
2023-02-12T03:51:16.022Z,102386.59
2023-02-12T03:54:21.380Z,102385.69
2023-02-12T03:57:30.658Z,102375.81
2023-02-12T04:00:33.551Z,102369.53
2023-02-12T04:03:36.419Z,102368.59
2023-02-12T04:06:41.296Z,102369.50
2023-02-12T04:09:44.537Z,102383.88
2023-02-12T04:12:55.818Z,102388.38
2023-02-12T04:16:08.967Z,102386.59
2023-02-12T04:19:15.680Z,102391.06
2023-02-12T04:22:36.147Z,102399.13
2023-02-12T04:25:51.774Z,102387.44
2023-02-12T04:29:09.215Z,102397.31
2023-02-12T04:32:17.460Z,102392.81
2023-02-12T04:35:25.306Z,102402.69
2023-02-12T04:38:34.011Z,102405.41
2023-02-12T04:41:36.853Z,102403.56
2023-02-12T04:44:41.161Z,102408.94
2023-02-12T04:47:43.956Z,102405.31
2023-02-12T04:50:46.716Z,102410.69
2023-02-12T04:53:51.061Z,102410.69
2023-02-12T04:56:53.828Z,102411.59
2023-02-12T04:59:56.568Z,102409.84
2023-02-12T05:02:59.571Z,102401.78
2023-02-12T05:06:04.458Z,102403.53
2023-02-12T05:09:09.781Z,102409.72
2023-02-12T05:12:12.501Z,102406.16
2023-02-12T05:15:15.396Z,102405.25
2023-02-12T05:18:18.085Z,102403.47
2023-02-12T05:21:20.759Z,102398.97
2023-02-12T05:24:24.921Z,102407.03
2023-02-12T05:27:27.587Z,102405.19
2023-02-12T05:30:30.388Z,102407.88
2023-02-12T05:33:33.566Z,102407.88
2023-02-12T05:36:36.418Z,102404.28
2023-02-12T05:39:40.746Z,102407.88
2023-02-12T05:42:43.453Z,102414.13
2023-02-12T05:45:46.111Z,102408.78
2023-02-12T05:48:49.060Z,102400.72
2023-02-12T05:51:51.869Z,102406.06
2023-02-12T05:54:55.917Z,102408.75
2023-02-12T05:57:58.608Z,102415.94
2023-02-12T06:01:01.293Z,102415.00
2023-02-12T06:04:05.743Z,102418.56
2023-02-12T06:07:08.450Z,102415.91
2023-02-12T06:10:12.891Z,102428.44
2023-02-12T06:13:15.554Z,102432.06
2023-02-12T06:16:21.020Z,102423.97
2023-02-12T06:19:24.417Z,102422.22
2023-02-12T06:22:28.482Z,102430.28
2023-02-12T06:25:32.619Z,102437.44
2023-02-12T06:28:35.734Z,102440.16
2023-02-12T06:31:39.253Z,102438.34
2023-02-12T06:34:42.304Z,102445.53
2023-02-12T06:37:45.141Z,102443.72
2023-02-12T06:40:52.020Z,102445.53
2023-02-12T06:43:54.798Z,102453.59
2023-02-12T06:46:58.773Z,102441.09
2023-02-12T06:50:01.729Z,102453.66
2023-02-12T06:53:04.499Z,102446.47
2023-02-12T06:56:11.457Z,102452.75
2023-02-12T06:59:16.227Z,102458.13
2023-02-12T07:02:18.957Z,102465.34
2023-02-12T07:05:21.833Z,102450.97
2023-02-12T07:08:24.630Z,102472.56
2023-02-12T07:11:31.126Z,102466.34
2023-02-12T07:14:33.887Z,102461.81
2023-02-12T07:17:36.715Z,102472.69
2023-02-12T07:20:39.546Z,102478.13
2023-02-12T07:23:42.654Z,102479.00
2023-02-12T07:26:46.793Z,102478.19
2023-02-12T07:29:49.518Z,102477.31
2023-02-12T07:32:52.165Z,102481.81
2023-02-12T07:35:55.110Z,102482.78
2023-02-12T07:38:59.285Z,102477.47
2023-02-12T07:42:03.565Z,102477.47
2023-02-12T07:45:07.741Z,102477.53
2023-02-12T07:48:10.603Z,102479.34
2023-02-12T07:51:16.048Z,102481.16
2023-02-12T07:54:18.890Z,102481.22
2023-02-12T07:57:22.952Z,102488.41
2023-02-12T08:00:25.822Z,102483.97
2023-02-12T08:03:29.647Z,102479.50
2023-02-12T08:06:34.241Z,102492.09
2023-02-12T08:09:37.012Z,102485.81
2023-02-12T08:12:41.024Z,102496.63
2023-02-12T08:15:43.694Z,102485.84
2023-02-12T08:18:46.921Z,102495.75
2023-02-12T08:21:50.782Z,102494.88
2023-02-12T08:24:53.515Z,102496.69
2023-02-12T08:27:57.676Z,102499.41
2023-02-12T08:31:02.214Z,102503.00
2023-02-12T08:34:05.955Z,102498.53
2023-02-12T08:37:08.694Z,102494.97
2023-02-12T08:40:13.854Z,102497.66
2023-02-12T08:43:17.925Z,102503.06
2023-02-12T08:46:23.423Z,102501.25
2023-02-12T08:49:28.673Z,102506.66
2023-02-12T08:52:31.347Z,102501.28
2023-02-12T08:55:34.150Z,102504.94
2023-02-12T08:58:38.996Z,102506.72
2023-02-12T09:01:42.833Z,102501.31
2023-02-12T09:04:45.738Z,102504.94
2023-02-12T09:07:49.277Z,102503.09
2023-02-12T09:10:51.997Z,102499.50
2023-02-12T09:13:56.064Z,102501.28
2023-02-12T09:16:58.747Z,102508.47
2023-02-12T09:20:02.678Z,102500.34
2023-02-12T09:23:05.859Z,102494.94
2023-02-12T09:26:10.780Z,102498.53
2023-02-12T09:29:14.930Z,102496.66
2023-02-12T09:32:17.663Z,102493.03
2023-02-12T09:35:20.582Z,102495.69
2023-02-12T09:38:23.311Z,102495.66
2023-02-12T09:41:45.382Z,102497.38
2023-02-12T09:44:57.644Z,102488.31
2023-02-12T09:48:13.645Z,102493.72
2023-02-12T09:51:16.551Z,102487.31
2023-02-12T09:54:22.103Z,102471.06
2023-02-12T09:57:29.458Z,102482.72
2023-02-12T10:00:33.782Z,102488.06
2023-02-12T10:03:36.595Z,102486.19
2023-02-12T10:06:50.678Z,102480.72
2023-02-12T10:10:09.867Z,102482.50
2023-02-12T10:13:25.132Z,102471.69
2023-02-12T10:16:43.916Z,102476.94
2023-02-12T10:20:19.641Z,102475.03
2023-02-12T10:24:00.827Z,102471.28
2023-02-12T10:27:11.864Z,102458.53
2023-02-12T10:30:22.374Z,102470.13
2023-02-12T10:33:32.867Z,102466.41
2023-02-12T10:36:43.176Z,102464.56
2023-02-12T10:39:51.605Z,102465.44
2023-02-12T10:42:54.711Z,102463.53
2023-02-12T10:45:58.178Z,102460.72
2023-02-12T10:49:03.462Z,102455.19
2023-02-12T10:52:14.980Z,102448.75
2023-02-12T10:55:36.820Z,102438.81
2023-02-12T10:58:41.865Z,102440.50
2023-02-12T11:01:48.527Z,102435.00
2023-02-12T11:04:54.301Z,102419.47
2023-02-12T11:07:57.576Z,102422.06
2023-02-12T11:11:11.151Z,102412.81
2023-02-12T11:14:20.553Z,102407.28
2023-02-12T11:17:29.758Z,102402.59
2023-02-12T11:20:41.120Z,102392.38
2023-02-12T11:23:45.299Z,102369.81
2023-02-12T11:26:48.034Z,102384.00
2023-02-12T11:30:14.186Z,102372.41
2023-02-12T11:33:22.822Z,102366.09
2023-02-12T11:36:29.772Z,102346.47
2023-02-12T11:39:39.490Z,102366.25
2023-02-12T11:42:43.469Z,102368.13
2023-02-12T11:45:49.748Z,102368.16
2023-02-12T11:48:54.341Z,102364.53
2023-02-12T11:52:01.236Z,102361.72
2023-02-12T11:55:07.859Z,102360.78
2023-02-12T11:58:17.778Z,102351.63
2023-02-12T12:01:23.619Z,102336.25
2023-02-12T12:04:31.734Z,102354.16
2023-02-12T12:07:40.080Z,102340.56
2023-02-12T12:10:48.302Z,102317.22
2023-02-12T12:13:58.669Z,102319.72
2023-02-12T12:17:24.287Z,102330.16
2023-02-12T12:20:32.042Z,102318.41
2023-02-12T12:23:41.291Z,102332.66
2023-02-12T12:26:50.231Z,102319.88
2023-02-12T12:30:06.693Z,102318.00
2023-02-12T12:33:18.360Z,102314.25
2023-02-12T12:36:51.861Z,102314.22
2023-02-12T12:40:09.111Z,102308.81
2023-02-12T12:43:19.695Z,102304.47
2023-02-12T12:46:47.851Z,102297.13
2023-02-12T12:50:18.830Z,102291.75
2023-02-12T12:53:35.947Z,102290.97
2023-02-12T12:56:59.429Z,102288.97
2023-02-12T13:00:21.126Z,102267.22
2023-02-12T13:03:40.784Z,102281.22
2023-02-12T13:06:54.416Z,102281.03
2023-02-12T13:10:20.705Z,102277.06
2023-02-12T13:13:34.008Z,102274.59
2023-02-12T13:16:41.630Z,102270.53
2023-02-12T13:19:54.369Z,102277.88
2023-02-12T13:23:02.186Z,102274.50
2023-02-12T13:26:12.664Z,102253.19
2023-02-12T13:29:21.880Z,102258.63
2023-02-12T13:32:29.609Z,102273.09
2023-02-12T13:35:35.162Z,102271.22
2023-02-12T13:38:41.465Z,102273.97
2023-02-12T13:41:57.462Z,102277.47
2023-02-12T13:45:18.239Z,102273.63
2023-02-12T13:48:36.876Z,102268.03
2023-02-12T13:51:44.985Z,102265.00
2023-02-12T13:54:58.083Z,102267.34
2023-02-12T13:58:40.799Z,102268.06
2023-02-12T14:01:49.324Z,102261.44
2023-02-12T14:04:57.193Z,102256.66
2023-02-12T14:08:05.563Z,102262.03
2023-02-12T14:11:10.524Z,102259.41
2023-02-12T14:14:13.700Z,102251.28
2023-02-12T14:17:44.262Z,102256.56
2023-02-12T14:20:46.978Z,102251.75
2023-02-12T14:23:50.762Z,102254.25
2023-02-12T14:26:54.127Z,102250.34
2023-02-12T14:30:26.992Z,102243.03
2023-02-12T14:33:31.122Z,102241.34
2023-02-12T14:36:40.790Z,102245.16
2023-02-12T14:39:43.661Z,102252.63
2023-02-12T14:42:56.863Z,102249.25
2023-02-12T14:46:20.973Z,102246.72
2023-02-12T14:49:28.205Z,102246.31
2023-02-12T14:52:33.492Z,102244.25
2023-02-12T14:55:36.689Z,102250.13
2023-02-12T14:58:40.894Z,102256.03
2023-02-12T15:01:44.434Z,102249.09
2023-02-12T15:04:49.663Z,102256.56
2023-02-12T15:07:56.165Z,102240.59
2023-02-12T15:11:07.766Z,102241.69
2023-02-12T15:14:17.686Z,102249.78
2023-02-12T15:17:23.254Z,102252.50
2023-02-12T15:20:35.715Z,102242.72
2023-02-12T15:23:41.394Z,102255.19
2023-02-12T15:26:48.253Z,102255.22
2023-02-12T15:29:53.593Z,102251.75
2023-02-12T15:32:57.754Z,102249.28
2023-02-12T15:36:02.878Z,102265.50
2023-02-12T15:39:09.713Z,102262.13
2023-02-12T15:42:26.818Z,102267.66
2023-02-12T15:45:30.990Z,102264.00
2023-02-12T15:48:35.947Z,102271.38
2023-02-12T15:51:42.237Z,102274.25
2023-02-12T15:54:46.112Z,102273.38
2023-02-12T15:57:51.457Z,102274.44
2023-02-12T16:00:56.980Z,102280.03
2023-02-12T16:04:03.320Z,102291.06
2023-02-12T16:07:09.122Z,102281.25
2023-02-12T16:10:15.716Z,102279.44
2023-02-12T16:13:21.922Z,102286.69
2023-02-12T16:16:28.086Z,102293.06
2023-02-12T16:19:33.031Z,102290.47
2023-02-12T16:22:39.656Z,102296.84
2023-02-12T16:25:42.505Z,102303.16
2023-02-12T16:28:48.374Z,102303.34
2023-02-12T16:31:56.182Z,102303.38
2023-02-12T16:35:02.310Z,102316.00
2023-02-12T16:38:47.454Z,102313.06
2023-02-12T16:41:56.358Z,102319.47
2023-02-12T16:44:59.130Z,102321.38
2023-02-12T16:48:04.938Z,102317.91
2023-02-12T16:51:07.941Z,102324.34
2023-02-12T16:54:31.238Z,102324.50
2023-02-12T16:57:34.256Z,102327.25
2023-02-12T17:00:37.059Z,102334.44
2023-02-12T17:03:40.972Z,102339.88
2023-02-12T17:06:44.092Z,102350.84
2023-02-12T17:09:48.181Z,102350.00
2023-02-12T17:12:53.162Z,102350.84
2023-02-12T17:15:58.408Z,102342.81
2023-02-12T17:19:02.212Z,102349.25
2023-02-12T17:22:06.146Z,102352.81
2023-02-12T17:25:11.504Z,102349.03
2023-02-12T17:28:14.360Z,102353.63
2023-02-12T17:31:17.241Z,102360.97
2023-02-12T17:34:20.976Z,102358.34
2023-02-12T17:37:25.400Z,102358.22
2023-02-12T17:40:29.547Z,102368.19
2023-02-12T17:43:32.319Z,102365.50
2023-02-12T17:46:35.095Z,102370.06
2023-02-12T17:49:39.851Z,102363.56
2023-02-12T17:52:42.864Z,102378.19
2023-02-12T17:55:48.106Z,102376.50
2023-02-12T17:58:50.958Z,102383.72
2023-02-12T18:01:54.144Z,102374.78
2023-02-12T18:04:56.952Z,102383.78
2023-02-12T18:07:59.783Z,102385.63
2023-02-12T18:11:07.764Z,102386.50
2023-02-12T18:14:12.444Z,102384.72
2023-02-12T18:17:15.105Z,102384.69
2023-02-12T18:20:17.981Z,102390.09
2023-02-12T18:23:20.661Z,102395.50
2023-02-12T18:26:24.721Z,102384.69
2023-02-12T18:29:27.511Z,102393.75
2023-02-12T18:32:30.221Z,102388.34
2023-02-12T18:35:33.259Z,102376.63
2023-02-12T18:38:37.137Z,102383.78
2023-02-12T18:41:41.349Z,102382.88
2023-02-12T18:44:44.081Z,102385.53
2023-02-12T18:47:47.069Z,102391.06
2023-02-12T18:50:51.752Z,102394.66
2023-02-12T18:53:56.030Z,102376.69
2023-02-12T18:57:00.342Z,102384.75
2023-02-12T19:00:04.937Z,102375.66
2023-02-12T19:03:07.826Z,102379.34
2023-02-12T19:06:10.936Z,102383.00
2023-02-12T19:09:16.584Z,102367.72
2023-02-12T19:12:20.720Z,102371.28
2023-02-12T19:15:23.488Z,102372.22
2023-02-12T19:18:26.330Z,102374.94
2023-02-12T19:21:29.166Z,102380.34
2023-02-12T19:24:45.569Z,102378.53
2023-02-12T19:27:50.170Z,102373.13
2023-02-12T19:30:52.992Z,102379.44
2023-02-12T19:33:59.183Z,102361.31
2023-02-12T19:37:02.140Z,102377.59
2023-02-12T19:40:05.126Z,102375.78
2023-02-12T19:43:09.197Z,102374.03
2023-02-12T19:46:13.555Z,102372.28
2023-02-12T19:49:19.784Z,102372.22
2023-02-12T19:52:22.461Z,102380.38
2023-02-12T19:55:25.174Z,102380.34
2023-02-12T19:58:31.176Z,102385.75
2023-02-12T20:01:35.217Z,102381.28
2023-02-12T20:04:37.931Z,102381.19
2023-02-12T20:07:40.643Z,102382.19
2023-02-12T20:10:43.365Z,102387.59
2023-02-12T20:13:47.812Z,102382.19
2023-02-12T20:16:51.879Z,102388.50
2023-02-12T20:19:54.640Z,102384.00
2023-02-12T20:22:57.487Z,102387.59
2023-02-12T20:26:00.349Z,102384.00
2023-02-12T20:29:05.759Z,102389.44
2023-02-12T20:32:08.783Z,102382.25
2023-02-12T20:35:11.869Z,102386.75
2023-02-12T20:38:15.358Z,102393.06
2023-02-12T20:41:18.113Z,102384.97
2023-02-12T20:44:23.248Z,102395.75
2023-02-12T20:47:28.805Z,102391.28
2023-02-12T20:50:32.045Z,102389.53
2023-02-12T20:53:35.049Z,102397.63
2023-02-12T20:56:38.698Z,102400.34
2023-02-12T20:59:42.884Z,102404.88
2023-02-12T21:02:45.915Z,102404.88
2023-02-12T21:05:48.691Z,102410.28
2023-02-12T21:08:52.973Z,102409.41
2023-02-12T21:11:58.178Z,102416.66
2023-02-12T21:15:03.874Z,102421.19
2023-02-12T21:18:06.692Z,102420.28
2023-02-12T21:21:16.380Z,102418.47
2023-02-12T21:24:21.622Z,102405.00
2023-02-12T21:27:24.473Z,102429.31
2023-02-12T21:30:29.266Z,102428.41
2023-02-12T21:33:32.077Z,102427.50
2023-02-12T21:36:37.392Z,102437.41
2023-02-12T21:39:40.093Z,102425.72
2023-02-12T21:42:42.782Z,102430.19
2023-02-12T21:45:52.712Z,102432.06
2023-02-12T21:48:55.924Z,102436.53
2023-02-12T21:52:02.528Z,102435.66
2023-02-12T21:55:05.513Z,102435.66
2023-02-12T21:58:08.221Z,102428.44
2023-02-12T22:01:13.972Z,102422.16
2023-02-12T22:04:18.289Z,102431.16
2023-02-12T22:07:21.020Z,102432.03
2023-02-12T22:10:23.674Z,102425.75
2023-02-12T22:13:26.343Z,102432.97
2023-02-12T22:16:30.456Z,102427.53
2023-02-12T22:19:33.297Z,102438.38
2023-02-12T22:22:36.200Z,102444.66
2023-02-12T22:25:39.304Z,102434.75
2023-02-12T22:28:43.326Z,102439.25
2023-02-12T22:31:48.340Z,102432.06
2023-02-12T22:34:51.128Z,102444.66
2023-02-12T22:37:53.801Z,102446.44
2023-02-12T22:40:56.762Z,102441.97
2023-02-12T22:44:00.118Z,102445.53
2023-02-12T22:47:05.282Z,102445.56
2023-02-12T22:50:08.799Z,102450.94
2023-02-12T22:53:11.477Z,102456.38
2023-02-12T22:56:14.348Z,102450.97
2023-02-12T22:59:17.286Z,102452.75
2023-02-12T23:02:21.604Z,102461.69
2023-02-12T23:05:24.296Z,102452.75
2023-02-12T23:08:27.047Z,102456.31
2023-02-12T23:11:31.669Z,102461.69
2023-02-12T23:14:36.093Z,102457.22
2023-02-12T23:17:40.163Z,102439.25
2023-02-12T23:20:42.825Z,102443.72
2023-02-12T23:23:45.516Z,102451.81
2023-02-12T23:26:48.169Z,102442.84
2023-02-12T23:29:50.833Z,102444.63
2023-02-12T23:32:55.139Z,102439.22
2023-02-12T23:35:57.835Z,102433.84
2023-02-12T23:39:00.505Z,102434.75
2023-02-12T23:42:03.762Z,102445.53
2023-02-12T23:45:06.829Z,102433.84
2023-02-12T23:48:11.076Z,102430.22
2023-02-12T23:51:13.832Z,102426.63
2023-02-12T23:54:16.597Z,102423.94
2023-02-12T23:57:19.277Z,102424.84
